Time;durP1;ratioP1;P1;durP2;ratioP2;P2;SDS_P1;SDS_P2;PMS_P1;PMS_P2;Temp;Humidity;BMP_temperature;BMP_pressure;BME280_temperature;BME280_humidity;BME280_pressure;Samples;Min_cycle;Max_cycle;Signal;HPM_P1;HPM_P2
2022/05/07 00:02:20;;;;;;;22.90;14.20;;;;;;;8.19;67.16;99210.08;432447;1271;111643;-42
2022/05/07 00:12:27;;;;;;;19.70;10.60;;;;;;;7.97;67.32;99205.77;432292;1271;108812;-44
2022/05/07 00:22:33;;;;;;;15.20;8.40;;;;;;;7.92;67.43;99203.13;432567;1271;101582;-44
2022/05/07 00:32:40;;;;;;;15.90;8.30;;;;;;;7.89;67.72;99206.28;432409;1271;106953;-45
2022/05/07 00:42:48;;;;;;;22.40;11.90;;;;;;;7.82;67.66;99207.18;432567;1271;99250;-40
2022/05/07 00:52:55;;;;;;;19.50;11.90;;;;;;;7.68;68.10;99204.10;432554;1271;111410;-41
2022/05/07 01:03:03;;;;;;;17.20;11.60;;;;;;;7.57;68.24;99196.16;432360;1271;108843;-42
2022/05/07 01:13:09;;;;;;;14.50;8.70;;;;;;;7.43;68.28;99189.21;432471;1271;99284;-45
2022/05/07 01:23:18;;;;;;;14.30;8.40;;;;;;;7.32;68.38;99191.10;432461;1273;109952;-45
2022/05/07 01:33:25;;;;;;;16.60;8.70;;;;;;;7.11;68.40;99189.70;432345;1272;99270;-40
2022/05/07 01:53:40;;;;;;;17.40;9.30;;;;;;;7.08;69.17;99187.33;432159;1274;108702;-45
2022/05/07 02:13:53;;;;;;;19.90;12.40;;;;;;;6.71;69.46;99187.81;432029;1274;109136;-45
2022/05/07 02:24:00;;;;;;;13.40;9.00;;;;;;;6.58;69.50;99188.40;431931;1274;98319;-41
2022/05/07 02:34:07;;;;;;;17.10;9.00;;;;;;;6.44;69.73;99185.79;431911;1274;111560;-41
2022/05/07 02:44:14;;;;;;;14.20;7.60;;;;;;;6.54;70.09;99185.98;431883;1274;108845;-40
2022/05/07 02:54:22;;;;;;;13.90;8.20;;;;;;;6.63;70.09;99184.11;430799;1274;99263;-45
2022/05/07 03:04:29;;;;;;;22.00;11.10;;;;;;;6.78;70.49;99191.90;431956;1274;108883;-43
2022/05/07 03:14:36;;;;;;;26.00;12.40;;;;;;;6.80;70.27;99196.75;431899;1274;98337;-40
2022/05/07 03:24:44;;;;;;;27.90;12.50;;;;;;;6.75;70.25;99197.83;431993;1274;112506;-45
2022/05/07 03:34:52;;;;;;;22.00;12.50;;;;;;;6.82;70.33;99201.98;431883;1274;109050;-44
2022/05/07 03:44:59;;;;;;;16.00;9.80;;;;;;;7.03;70.47;99210.15;430996;1274;99379;-43
2022/05/07 03:55:07;;;;;;;16.60;8.90;;;;;;;7.56;70.42;99209.27;431937;1274;108861;-45
2022/05/07 04:05:14;;;;;;;17.70;10.20;;;;;;;9.01;70.20;99204.49;431974;1274;98857;-43
2022/05/07 04:15:21;;;;;;;19.60;11.20;;;;;;;11.36;69.39;99206.89;432062;1274;112451;-41
2022/05/07 04:25:28;;;;;;;13.90;10.20;;;;;;;13.50;67.71;99208.34;431012;1274;107150;-42
2022/05/07 04:35:35;;;;;;;20.50;11.60;;;;;;;14.72;66.32;99210.60;432045;1274;99270;-44
2022/05/07 04:45:42;;;;;;;18.30;12.70;;;;;;;15.76;65.04;99212.06;431914;1274;109410;-41
2022/05/07 04:55:50;;;;;;;27.60;12.80;;;;;;;16.38;63.95;99215.45;432006;1274;99289;-40
2022/05/07 05:05:58;;;;;;;24.40;11.60;;;;;;;16.87;62.23;99217.23;431845;1274;112459;-41
2022/05/07 05:16:05;;;;;;;17.90;10.90;;;;;;;17.42;61.58;99226.12;431072;1274;108778;-41
2022/05/07 05:26:13;;;;;;;18.80;10.20;;;;;;;18.41;61.43;99224.41;431855;1274;98160;-43
2022/05/07 05:36:20;;;;;;;14.20;9.30;;;;;;;19.67;60.29;99226.51;431862;1274;108850;-40
2022/05/07 05:46:28;;;;;;;14.50;9.20;;;;;;;20.18;58.56;99234.64;431802;1274;99296;-45
2022/05/07 05:56:36;;;;;;;19.90;10.00;;;;;;;19.30;54.89;99241.52;431929;1273;112166;-41
2022/05/07 06:06:44;;;;;;;13.80;9.50;;;;;;;19.20;54.84;99246.58;431879;1274;108823;-45
2022/05/07 06:16:51;;;;;;;12.70;8.20;;;;;;;19.19;53.87;99253.05;431685;1274;270958;-41
2022/05/07 06:37:19;;;;;;;10.70;5.40;;;;;;;19.84;52.32;99256.08;431812;1274;99298;-42
2022/05/07 06:47:27;;;;;;;5.90;4.20;;;;;;;20.08;50.40;99258.06;431897;1274;112772;-46
2022/05/07 06:57:34;;;;;;;4.90;3.90;;;;;;;20.04;49.95;99257.88;431796;1274;108729;-45
2022/05/07 07:07:41;;;;;;;6.60;4.70;;;;;;;19.98;48.62;99261.75;431971;1274;98859;-44
2022/05/07 07:17:48;;;;;;;7.80;5.00;;;;;;;19.74;48.02;99260.25;431812;1274;108415;-47
2022/05/07 07:27:56;;;;;;;8.00;4.90;;;;;;;19.71;47.14;99266.64;431859;1274;98041;-46
2022/05/07 07:38:03;;;;;;;8.50;5.10;;;;;;;19.92;47.58;99264.19;431916;1274;113008;-41
2022/05/07 07:48:11;;;;;;;6.30;3.40;;;;;;;20.06;46.99;99261.29;431854;1274;109428;-41
2022/05/07 07:58:19;;;;;;;5.60;3.70;;;;;;;20.46;46.26;99264.14;432016;1274;98039;-46
2022/05/07 08:18:51;;;;;;;4.60;3.40;;;;;;;20.62;44.25;99265.50;431851;1274;98488;-44
2022/05/07 08:28:59;;;;;;;5.00;3.30;;;;;;;20.56;44.26;99263.89;431897;1274;112351;-45
2022/05/07 08:39:05;;;;;;;4.60;3.00;;;;;;;21.10;43.27;99262.14;431915;1274;108237;-47
2022/05/07 08:49:13;;;;;;;8.40;3.00;;;;;;;21.85;42.20;99256.36;431132;1274;98045;-43
2022/05/07 08:59:19;;;;;;;5.60;2.40;;;;;;;21.27;41.34;99264.19;431938;1274;108283;-42
2022/05/07 09:09:30;;;;;;;6.00;3.10;;;;;;;20.85;41.86;99269.61;432127;1274;99270;-42
2022/05/07 09:19:38;;;;;;;10.40;3.80;;;;;;;21.06;41.23;99268.10;431857;1274;112431;-45
2022/05/07 09:29:45;;;;;;;6.90;3.70;;;;;;;21.06;40.77;99266.80;432071;1274;108855;-41
2022/05/07 09:39:53;;;;;;;7.70;3.20;;;;;;;20.43;40.51;99267.31;431958;1274;98429;-42
2022/05/07 10:00:24;;;;;;;3.70;2.70;;;;;;;21.37;40.21;99249.64;432248;1274;99371;-44
2022/05/07 10:10:31;;;;;;;3.40;1.90;;;;;;;21.64;40.40;99243.20;432058;1274;112740;-41
2022/05/07 10:20:46;;;;;;;5.90;2.40;;;;;;;21.13;40.11;99235.50;431913;1274;108894;-40
2022/05/07 10:30:55;;;;;;;3.80;2.60;;;;;;;20.40;40.04;99235.77;431946;1274;99263;-45
2022/05/07 10:41:05;;;;;;;4.50;2.10;;;;;;;20.61;40.22;99222.52;432130;1274;107838;-46
2022/05/07 10:51:17;;;;;;;4.20;2.00;;;;;;;20.96;39.42;99206.41;432058;1274;99303;-41
2022/05/07 11:01:26;;;;;;;3.20;2.00;;;;;;;21.37;38.96;99200.95;432090;1274;112139;-45
2022/05/07 11:11:42;;;;;;;3.40;1.80;;;;;;;21.62;38.89;99196.05;432094;1274;108878;-45
2022/05/07 11:21:53;;;;;;;6.00;3.20;;;;;;;21.50;39.03;99191.06;432210;1274;99297;-44
2022/05/07 11:32:00;;;;;;;3.20;2.10;;;;;;;21.84;38.58;99185.10;432105;1274;108862;-41
2022/05/07 11:42:08;;;;;;;6.00;2.60;;;;;;;21.93;38.17;99175.38;432202;1274;98843;-40
2022/05/07 11:52:12;;;;;;;4.30;2.20;;;;;;;21.93;37.66;99170.16;432154;1274;110122;-43
2022/05/07 12:02:19;;;;;;;10.90;2.90;;;;;;;21.89;37.75;99157.52;432063;1274;108151;-42
2022/05/07 12:12:26;;;;;;;4.20;2.30;;;;;;;22.33;37.83;99146.98;432091;1274;99373;-44
2022/05/07 12:32:59;;;;;;;2.30;2.10;;;;;;;22.28;37.64;99138.59;432145;1274;99308;-45
2022/05/07 12:43:05;;;;;;;4.00;2.60;;;;;;;22.53;36.59;99135.23;432223;1274;112442;-41
2022/05/07 12:53:12;;;;;;;2.80;2.20;;;;;;;22.20;36.62;99122.11;432035;1274;108801;-45
2022/05/07 13:03:19;;;;;;;4.50;2.90;;;;;;;21.93;35.78;99122.67;432088;1274;99273;-41
2022/05/07 13:13:27;;;;;;;5.90;2.40;;;;;;;21.69;36.48;99115.42;432056;1275;108824;-41
2022/05/07 13:23:34;;;;;;;2.70;2.20;;;;;;;21.85;36.63;99114.49;432017;1274;99266;-41
2022/05/07 13:33:41;;;;;;;3.10;2.20;;;;;;;21.80;36.03;99109.13;432168;1274;112998;-44
2022/05/07 13:43:48;;;;;;;5.50;2.10;;;;;;;21.74;36.79;99102.81;432150;1275;109261;-44
2022/05/07 14:04:01;;;;;;;5.40;2.30;;;;;;;21.53;36.14;99094.16;432204;1275;108837;-46
2022/05/07 14:14:09;;;;;;;4.80;2.20;;;;;;;21.22;36.20;99089.96;432286;1274;98052;-42
2022/05/07 14:24:16;;;;;;;6.40;2.00;;;;;;;21.39;36.32;99080.90;432286;1275;112135;-44
2022/05/07 14:44:29;;;;;;;3.10;2.30;;;;;;;21.24;36.19;99072.20;432099;1274;99280;-41
2022/05/07 14:54:35;;;;;;;3.40;1.70;;;;;;;21.21;36.43;99065.23;432116;1274;107397;-45
2022/05/07 15:04:42;;;;;;;4.20;2.00;;;;;;;21.31;36.25;99056.14;432200;1275;99330;-46
2022/05/07 15:14:50;;;;;;;5.90;2.20;;;;;;;21.33;35.92;99054.61;432143;1274;111842;-43
2022/05/07 15:24:57;;;;;;;8.80;3.70;;;;;;;21.11;36.08;99053.05;431035;1274;107787;-45
2022/05/07 15:45:29;;;;;;;4.70;1.60;;;;;;;20.91;36.11;99042.05;432231;1273;108945;-44
2022/05/07 15:55:36;;;;;;;4.00;1.80;;;;;;;20.86;35.99;99034.00;432412;1273;98097;-45
2022/05/07 16:05:43;;;;;;;4.30;1.90;;;;;;;20.89;36.23;99032.56;432482;1273;110855;-47
2022/05/07 16:26:00;;;;;;;2.30;1.90;;;;;;;20.52;36.32;99023.45;432484;1273;98073;-44
2022/05/07 16:36:07;;;;;;;5.20;2.90;;;;;;;20.15;35.94;99023.54;432283;1273;108815;-47
2022/05/07 16:56:20;;;;;;;4.30;2.70;;;;;;;19.66;37.15;99022.85;432447;1273;112585;-43
2022/05/07 17:16:35;;;;;;;3.70;2.80;;;;;;;19.18;37.97;99031.75;432531;1273;98030;-43
2022/05/07 17:26:42;;;;;;;4.30;3.10;;;;;;;18.89;38.58;99035.58;432238;1275;108759;-46
2022/05/07 17:46:55;;;;;;;8.30;3.70;;;;;;;18.60;39.67;99049.52;432195;1273;112443;-45
2022/05/07 17:57:02;;;;;;;8.60;3.30;;;;;;;18.35;40.48;99058.44;432416;1273;108717;-46
2022/05/07 18:07:09;;;;;;;10.30;4.50;;;;;;;17.96;40.98;99058.98;432208;1273;98431;-42
2022/05/07 18:17:24;;;;;;;6.40;3.60;;;;;;;17.48;42.02;99067.17;431882;1274;528911;-45
2022/05/07 18:48:01;;;;;;;23.30;12.70;;;;;;;15.68;44.68;99093.48;432249;1273;107580;-41
2022/05/07 19:08:35;;;;;;;22.50;12.80;;;;;;;14.82;46.95;99102.46;432229;1274;108790;-44
2022/05/07 19:18:41;;;;;;;24.80;14.10;;;;;;;14.23;47.57;99106.50;432284;1273;99331;-43
2022/05/07 19:28:49;;;;;;;38.80;22.60;;;;;;;13.80;48.77;99111.46;432332;1274;112498;-46
2022/05/07 19:38:57;;;;;;;44.60;27.50;;;;;;;13.65;49.49;99122.34;432377;1273;107095;-41
2022/05/07 19:49:04;;;;;;;54.90;32.20;;;;;;;13.33;50.04;99129.79;432322;1274;98034;-45
2022/05/07 19:59:12;;;;;;;40.70;24.70;;;;;;;13.06;50.85;99125.35;432305;1273;109130;-45
2022/05/07 20:09:19;;;;;;;43.80;24.30;;;;;;;13.04;51.61;99119.02;432260;1270;99277;-42
2022/05/07 20:19:24;;;;;;;34.50;22.00;;;;;;;12.95;52.18;99125.35;432354;1273;111904;-46
2022/05/07 20:39:38;;;;;;;60.00;37.10;;;;;;;12.72;53.03;99127.93;432313;1273;99190;-45
2022/05/07 20:49:45;;;;;;;52.10;32.20;;;;;;;12.60;53.73;99129.11;432156;1273;107898;-45
2022/05/07 20:59:52;;;;;;;41.20;28.90;;;;;;;12.58;54.02;99127.16;432403;1273;98891;-41
2022/05/07 21:09:58;;;;;;;43.00;28.60;;;;;;;12.50;54.53;99126.46;432096;1274;112496;-46
2022/05/07 21:20:07;;;;;;;34.30;24.00;;;;;;;12.44;54.80;99132.73;432162;1273;108138;-44
2022/05/07 21:30:21;;;;;;;29.10;20.60;;;;;;;12.42;55.31;99141.95;432032;1273;99324;-44
2022/05/07 21:40:28;;;;;;;29.70;20.40;;;;;;;12.43;56.13;99150.45;431967;1274;108694;-46
2022/05/07 22:01:02;;;;;;;19.10;16.20;;;;;;;12.12;56.73;99157.30;432436;1273;112480;-45
2022/05/07 22:11:18;;;;;;;26.90;17.50;;;;;;;12.02;57.22;99161.71;432055;1274;108807;-46
2022/05/07 22:21:25;;;;;;;24.70;16.50;;;;;;;11.89;57.34;99167.81;432203;1272;99285;-45
2022/05/07 22:31:32;;;;;;;19.60;14.90;;;;;;;11.83;57.77;99165.41;432270;1273;108855;-42
2022/05/07 22:41:39;;;;;;;28.30;19.10;;;;;;;11.76;58.59;99168.00;432173;1273;98263;-44
2022/05/07 22:51:45;;;;;;;28.80;18.40;;;;;;;11.68;58.95;99170.02;431934;1274;112859;-45
2022/05/07 23:01:53;;;;;;;31.90;18.40;;;;;;;11.45;59.16;99162.22;431922;1274;109274;-42
2022/05/07 23:12:01;;;;;;;23.70;15.60;;;;;;;11.19;59.50;99161.64;432187;1273;98050;-44
2022/05/07 23:22:08;;;;;;;19.30;15.20;;;;;;;11.06;59.99;99169.34;431884;1274;107030;-45
2022/05/07 23:32:15;;;;;;;23.40;18.40;;;;;;;10.70;60.14;99164.18;431895;1272;99601;-45
2022/05/07 23:42:23;;;;;;;32.50;20.50;;;;;;;10.48;60.70;99159.45;432091;1273;112114;-43
2022/05/07 23:52:30;;;;;;;31.30;20.70;;;;;;;10.19;61.11;99157.86;432231;1272;108768;-42
